D/T METAR WX W/DIR W/SPE G/SPE TEMP DEWP
23/05/19 12:50 EGVP 231150Z 20005KT CAVOK 20/07 Q1015 BLU NOSIG SSW (200°) 5.8mph 20°C 7°C
23/05/19 11:50 EGVP 231050Z 18006KT 9999 FEW048 BKN200 20/09 Q1016 BLU NOSIG S (180°) 6.9mph 20°C 9°C
23/05/19 10:50 EGVP 230950Z 17004KT 9999 FEW045 BKN250 18/06 Q1016 BLU NOSIG S (170°) 4.6mph 18°C 6°C
23/05/19 09:50 EGVP 230850Z 08002KT CAVOK 17/06 Q1017 BLU NOSIG E (80°) 2.3mph 17°C 6°C
23/05/19 08:50 EGVP 230750Z 10002KT CAVOK 13/08 Q1017 BLU NOSIG E (100°) 2.3mph 13°C 8°C
23/05/19 07:50 EGVP 230650Z 15001KT CAVOK 11/07 Q1017 BLU NOSIG SSE (150°) 1.2mph 11°C 7°C
23/05/19 06:50 EGVP 230550Z 36003KT 9000 HZ FEW045 BKN300 08/06 Q1017 BLU HZ N (360°) 3.5mph 8°C 6°C
23/05/19 05:50 EGVP 230450Z AUTO 33002KT 9000 // FEW200/// 06/05 Q1017 NNW (330°) 2.3mph 6°C 5°C
23/05/19 04:50 EGVP 230350Z AUTO 00000KT 9999 // FEW050/// BKN190/// 06/04 Q1017 N (0°) 6°C 4°C
23/05/19 03:50 EGVP 230250Z AUTO 00000KT 9999 // SCT049/// 08/06 Q1017 N (0°) 8°C 6°C
23/05/19 02:50 EGVP 230150Z AUTO 17003KT 9999 // SCT200/// 08/05 Q1018 S (170°) 3.5mph 8°C 5°C
23/05/19 01:50 EGVP 230050Z AUTO 00000KT 9999 // SCT210/// 10/06 Q1018 N (0°) 10°C 6°C
23/05/19 00:50 EGVP 222350Z AUTO 21001KT 9999 // BKN240/// 09/05 Q1018 SSW (210°) 1.2mph 9°C 5°C
22/05/19 23:50 EGVP 222250Z 19003KT CAVOK 10/05 Q1018 BLU NOSIG S (190°) 3.5mph 10°C 5°C
22/05/19 22:50 EGVP 222150Z 20003KT CAVOK 12/05 Q1018 BLU NOSIG SSW (200°) 3.5mph 12°C 5°C
22/05/19 21:50 EGVP 222050Z 24004KT CAVOK 12/05 Q1018 BLU NOSIG WSW (240°) 4.6mph 12°C 5°C
22/05/19 20:50 EGVP 221950Z 25003KT CAVOK 14/05 Q1018 BLU NOSIG WSW (250°) 3.5mph 14°C 5°C
22/05/19 19:50 EGVP 221850Z 21006KT CAVOK 17/04 Q1018 BLU SSW (210°) 6.9mph 17°C 4°C
22/05/19 18:50 EGVP 221750Z 20009KT CAVOK 19/04 Q1018 BLU SSW (200°) 10.4mph 19°C 4°C
22/05/19 17:50 EGVP 221650Z 20010KT CAVOK 20/06 Q1018 BLU NOSIG SSW (200°) 11.5mph 20°C 6°C
22/05/19 16:50 EGVP 221550Z 23008KT CAVOK 20/06 Q1018 BLU NOSIG SW (230°) 9.2mph 20°C 6°C
22/05/19 15:50 EGVP 221450Z 24007KT CAVOK 20/07 Q1019 BLU NOSIG WSW (240°) 8.1mph 20°C 7°C
22/05/19 14:50 EGVP 221350Z 22006KT CAVOK 20/07 Q1019 BLU NOSIG SW (220°) 6.9mph 20°C 7°C
22/05/19 13:50 EGVP 221250Z 25005KT CAVOK 19/06 Q1019 BLU NOSIG WSW (250°) 5.8mph 19°C 6°C
22/05/19 12:50 EGVP 221150Z 23005KT CAVOK 18/06 Q1020 BLU NOSIG SW (230°) 5.8mph 18°C 6°C
22/05/19 11:50 EGVP 221050Z 21005KT CAVOK 19/06 Q1020 BLU NOSIG SSW (210°) 5.8mph 19°C 6°C
22/05/19 10:50 EGVP 220950Z 15006KT 9999 FEW045 SCT160 BKN180 17/05 Q1020 BLU NOSIG SSE (150°) 6.9mph 17°C 5°C
22/05/19 09:50 EGVP 220850Z 11003KT CAVOK 16/04 Q1020 BLU NOSIG ESE (110°) 3.5mph 16°C 4°C
22/05/19 08:50 EGVP 220750Z 09004KT CAVOK 14/04 Q1020 BLU NOSIG E (90°) 4.6mph 14°C 4°C
22/05/19 07:50 EGVP 220650Z 35002KT CAVOK 11/06 Q1020 BLU NOSIG N (350°) 2.3mph 11°C 6°C
22/05/19 06:50 EGVP 220550Z 00000KT CAVOK 09/06 Q1020 BLU N (0°) 9°C 6°C
22/05/19 05:50 EGVP 220450Z 32003KT CAVOK 08/04 Q1020 BLU NW (320°) 3.5mph 8°C 4°C
22/05/19 04:50 EGVP 220350Z AUTO 32004KT 9999 // BKN200/// 07/05 Q1020 NW (320°) 4.6mph 7°C 5°C
22/05/19 03:50 EGVP 220250Z AUTO 32003KT 9999 // BKN170/// 08/06 Q1020 NW (320°) 3.5mph 8°C 6°C
22/05/19 02:50 EGVP 220150Z AUTO 33002KT 9999 // BKN170/// 10/07 Q1020 NNW (330°) 2.3mph 10°C 7°C
22/05/19 01:50 EGVP 220050Z AUTO 33002KT 9999 // SCT170/// BKN220/// 10/07 Q1020 NNW (330°) 2.3mph 10°C 7°C
22/05/19 00:50 EGVP 212350Z AUTO 28003KT 9999 // FEW060/// SCT200/// 11/07 Q1020 W (280°) 3.5mph 11°C 7°C
21/05/19 23:50 EGVP 212250Z 34004KT CAVOK 12/07 Q1020 BLU NOSIG NNW (340°) 4.6mph 12°C 7°C
21/05/19 22:50 EGVP 212150Z 29003KT CAVOK 12/07 Q1020 BLU NOSIG WNW (290°) 3.5mph 12°C 7°C
21/05/19 21:50 EGVP 212050Z 32003KT CAVOK 13/07 Q1020 BLU NOSIG NW (320°) 3.5mph 13°C 7°C
21/05/19 20:50 EGVP 211950Z 30003KT CAVOK 15/07 Q1019 BLU NOSIG WNW (300°) 3.5mph 15°C 7°C
21/05/19 19:50 EGVP 211850Z 31004KT CAVOK 18/06 Q1019 BLU NW (310°) 4.6mph 18°C 6°C
21/05/19 18:50 EGVP 211750Z 33007KT CAVOK 19/04 Q1019 BLU NOSIG NNW (330°) 8.1mph 19°C 4°C
21/05/19 17:50 EGVP 211650Z 32008KT CAVOK 20/04 Q1018 BLU NOSIG NW (320°) 9.2mph 20°C 4°C
21/05/19 16:50 EGVP 211550Z 32006KT CAVOK 19/05 Q1019 BLU NOSIG NW (320°) 6.9mph 19°C 5°C
21/05/19 15:50 EGVP 211450Z 31006KT CAVOK 19/04 Q1019 BLU NOSIG NW (310°) 6.9mph 19°C 4°C
21/05/19 14:50 EGVP 211350Z 31007KT CAVOK 19/06 Q1019 BLU NOSIG NW (310°) 8.1mph 19°C 6°C
21/05/19 13:50 EGVP 211250Z 36005KT CAVOK 18/05 Q1019 BLU NOSIG N (360°) 5.8mph 18°C 5°C